sensor_id;sensor_type;location;lat;lon;timestamp;pressure;altitude;pressure_sealevel;temperature;humidity
44988;BME280;35735;52.226;21.254;2023-02-14T00:00:28;101788.91;;;4.84;100.00
44988;BME280;35735;52.226;21.254;2023-02-14T00:05:28;101797.09;;;4.87;100.00
44988;BME280;35735;52.226;21.254;2023-02-14T00:10:29;101804.16;;;4.85;100.00
44988;BME280;35735;52.226;21.254;2023-02-14T00:15:29;101810.47;;;4.87;100.00
44988;BME280;35735;52.226;21.254;2023-02-14T00:20:30;101809.50;;;4.85;100.00
44988;BME280;35735;52.226;21.254;2023-02-14T00:25:32;101814.69;;;4.82;100.00
44988;BME280;35735;52.226;21.254;2023-02-14T00:30:33;101819.22;;;4.83;100.00
44988;BME280;35735;52.226;21.254;2023-02-14T00:35:36;101821.75;;;4.80;100.00
44988;BME280;35735;52.226;21.254;2023-02-14T00:40:37;101816.41;;;4.80;100.00
44988;BME280;35735;52.226;21.254;2023-02-14T00:45:37;101820.78;;;4.78;100.00
44988;BME280;35735;52.226;21.254;2023-02-14T00:50:38;101812.59;;;4.75;100.00
44988;BME280;35735;52.226;21.254;2023-02-14T00:55:39;101823.00;;;4.69;100.00
44988;BME280;35735;52.226;21.254;2023-02-14T01:00:39;101830.19;;;4.70;100.00
44988;BME280;35735;52.226;21.254;2023-02-14T01:05:40;101828.34;;;4.69;100.00
44988;BME280;35735;52.226;21.254;2023-02-14T01:10:41;101834.34;;;4.63;100.00
44988;BME280;35735;52.226;21.254;2023-02-14T01:15:44;101821.97;;;4.65;100.00
44988;BME280;35735;52.226;21.254;2023-02-14T01:20:46;101822.59;;;4.59;100.00
44988;BME280;35735;52.226;21.254;2023-02-14T01:25:46;101818.09;;;4.58;100.00
44988;BME280;35735;52.226;21.254;2023-02-14T01:30:47;101807.31;;;4.57;100.00
44988;BME280;35735;52.226;21.254;2023-02-14T01:35:47;101807.09;;;4.52;100.00
44988;BME280;35735;52.226;21.254;2023-02-14T01:40:48;101826.44;;;4.47;100.00
44988;BME280;35735;52.226;21.254;2023-02-14T01:45:49;101835.22;;;4.44;100.00
44988;BME280;35735;52.226;21.254;2023-02-14T01:50:51;101836.09;;;4.43;100.00
44988;BME280;35735;52.226;21.254;2023-02-14T01:56:00;101830.59;;;4.40;100.00
44988;BME280;35735;52.226;21.254;2023-02-14T02:01:06;101831.25;;;4.36;100.00
44988;BME280;35735;52.226;21.254;2023-02-14T02:06:21;101832.97;;;4.34;100.00
44988;BME280;35735;52.226;21.254;2023-02-14T02:11:25;101830.28;;;4.34;100.00
44988;BME280;35735;52.226;21.254;2023-02-14T02:22:19;101833.03;;;4.35;100.00
44988;BME280;35735;52.226;21.254;2023-02-14T02:38:40;101831.34;;;4.37;100.00
44988;BME280;35735;52.226;21.254;2023-02-14T02:43:55;101841.84;;;4.33;100.00
44988;BME280;35735;52.226;21.254;2023-02-14T02:54:45;101844.06;;;4.23;100.00
44988;BME280;35735;52.226;21.254;2023-02-14T02:59:52;101850.16;;;4.21;100.00
44988;BME280;35735;52.226;21.254;2023-02-14T03:04:59;101851.09;;;4.21;100.00
44988;BME280;35735;52.226;21.254;2023-02-14T03:20:59;101855.97;;;4.12;100.00
44988;BME280;35735;52.226;21.254;2023-02-14T03:26:46;101861.31;;;4.12;100.00
44988;BME280;35735;52.226;21.254;2023-02-14T03:37:11;101872.41;;;4.02;100.00
44988;BME280;35735;52.226;21.254;2023-02-14T03:42:19;101866.81;;;3.97;100.00
44988;BME280;35735;52.226;21.254;2023-02-14T03:47:27;101871.25;;;3.97;100.00
44988;BME280;35735;52.226;21.254;2023-02-14T03:52:32;101871.94;;;3.93;100.00
44988;BME280;35735;52.226;21.254;2023-02-14T03:57:41;101870.09;;;3.92;100.00
44988;BME280;35735;52.226;21.254;2023-02-14T04:02:54;101870.19;;;3.93;100.00
44988;BME280;35735;52.226;21.254;2023-02-14T04:08:00;101876.28;;;3.90;100.00
44988;BME280;35735;52.226;21.254;2023-02-14T04:13:00;101873.53;;;3.89;100.00
44988;BME280;35735;52.226;21.254;2023-02-14T04:18:01;101877.22;;;3.91;100.00
44988;BME280;35735;52.226;21.254;2023-02-14T04:23:02;101870.78;;;3.87;100.00
44988;BME280;35735;52.226;21.254;2023-02-14T04:28:03;101876.91;;;3.85;100.00
44988;BME280;35735;52.226;21.254;2023-02-14T04:33:03;101888.03;;;3.76;100.00
44988;BME280;35735;52.226;21.254;2023-02-14T04:38:04;101888.41;;;3.66;100.00
44988;BME280;35735;52.226;21.254;2023-02-14T04:43:05;101884.72;;;3.64;100.00
44988;BME280;35735;52.226;21.254;2023-02-14T04:48:06;101889.91;;;3.61;100.00
44988;BME280;35735;52.226;21.254;2023-02-14T04:53:06;101897.09;;;3.62;100.00
44988;BME280;35735;52.226;21.254;2023-02-14T04:58:07;101898.69;;;3.58;100.00
44988;BME280;35735;52.226;21.254;2023-02-14T05:03:07;101899.28;;;3.52;100.00
44988;BME280;35735;52.226;21.254;2023-02-14T05:08:08;101904.63;;;3.52;100.00
44988;BME280;35735;52.226;21.254;2023-02-14T05:13:08;101907.44;;;3.56;100.00
44988;BME280;35735;52.226;21.254;2023-02-14T05:18:09;101896.66;;;3.54;100.00
44988;BME280;35735;52.226;21.254;2023-02-14T05:23:09;101909.97;;;3.52;100.00
44988;BME280;35735;52.226;21.254;2023-02-14T05:28:10;101913.12;;;3.45;100.00
44988;BME280;35735;52.226;21.254;2023-02-14T05:33:12;101916.97;;;3.50;100.00
44988;BME280;35735;52.226;21.254;2023-02-14T05:38:13;101927.63;;;3.50;100.00
44988;BME280;35735;52.226;21.254;2023-02-14T05:43:13;101926.31;;;3.42;100.00
44988;BME280;35735;52.226;21.254;2023-02-14T05:48:14;101910.22;;;3.41;100.00
44988;BME280;35735;52.226;21.254;2023-02-14T05:53:15;101916.31;;;3.38;100.00
44988;BME280;35735;52.226;21.254;2023-02-14T05:58:15;101917.41;;;3.42;100.00
44988;BME280;35735;52.226;21.254;2023-02-14T06:03:16;101928.25;;;3.45;100.00
44988;BME280;35735;52.226;21.254;2023-02-14T06:08:16;101935.25;;;3.43;100.00
44988;BME280;35735;52.226;21.254;2023-02-14T06:13:17;101932.59;;;3.43;100.00
44988;BME280;35735;52.226;21.254;2023-02-14T06:18:18;101941.34;;;3.40;100.00
44988;BME280;35735;52.226;21.254;2023-02-14T06:23:18;101945.59;;;3.37;100.00
44988;BME280;35735;52.226;21.254;2023-02-14T06:28:19;101948.19;;;3.35;100.00
44988;BME280;35735;52.226;21.254;2023-02-14T06:33:19;101947.34;;;3.36;100.00
44988;BME280;35735;52.226;21.254;2023-02-14T06:38:20;101954.28;;;3.32;100.00
44988;BME280;35735;52.226;21.254;2023-02-14T06:43:20;101952.44;;;3.31;100.00
44988;BME280;35735;52.226;21.254;2023-02-14T06:48:21;101948.69;;;3.28;100.00
44988;BME280;35735;52.226;21.254;2023-02-14T06:53:21;101951.38;;;3.28;100.00
44988;BME280;35735;52.226;21.254;2023-02-14T06:58:22;101946.50;;;3.37;100.00
44988;BME280;35735;52.226;21.254;2023-02-14T07:03:23;101949.44;;;3.42;100.00
44988;BME280;35735;52.226;21.254;2023-02-14T07:08:24;101955.84;;;3.45;100.00
44988;BME280;35735;52.226;21.254;2023-02-14T07:13:25;101951.59;;;3.49;100.00
44988;BME280;35735;52.226;21.254;2023-02-14T07:18:25;101959.50;;;3.47;100.00
44988;BME280;35735;52.226;21.254;2023-02-14T07:23:26;101972.19;;;3.51;100.00
44988;BME280;35735;52.226;21.254;2023-02-14T07:28:27;101984.47;;;3.48;100.00
44988;BME280;35735;52.226;21.254;2023-02-14T07:33:27;101980.88;;;3.47;100.00
44988;BME280;35735;52.226;21.254;2023-02-14T07:38:28;101996.06;;;3.48;100.00
44988;BME280;35735;52.226;21.254;2023-02-14T07:43:28;101999.25;;;3.58;100.00
44988;BME280;35735;52.226;21.254;2023-02-14T07:48:29;102000.31;;;3.61;100.00
44988;BME280;35735;52.226;21.254;2023-02-14T07:53:30;101999.72;;;3.67;100.00
44988;BME280;35735;52.226;21.254;2023-02-14T07:58:30;102008.16;;;3.75;100.00
44988;BME280;35735;52.226;21.254;2023-02-14T08:03:31;102013.56;;;3.76;100.00
44988;BME280;35735;52.226;21.254;2023-02-14T08:08:31;102018.06;;;3.77;100.00
44988;BME280;35735;52.226;21.254;2023-02-14T08:13:32;102014.56;;;3.78;100.00
44988;BME280;35735;52.226;21.254;2023-02-14T08:18:38;102023.56;;;3.80;100.00
44988;BME280;35735;52.226;21.254;2023-02-14T08:23:40;102019.47;;;3.87;100.00
44988;BME280;35735;52.226;21.254;2023-02-14T08:28:40;102013.97;;;3.84;100.00
44988;BME280;35735;52.226;21.254;2023-02-14T08:33:41;102023.47;;;3.79;100.00
44988;BME280;35735;52.226;21.254;2023-02-14T08:38:42;102025.72;;;3.87;100.00
44988;BME280;35735;52.226;21.254;2023-02-14T08:43:44;102034.94;;;3.93;100.00
44988;BME280;35735;52.226;21.254;2023-02-14T08:48:44;102037.66;;;3.94;100.00
44988;BME280;35735;52.226;21.254;2023-02-14T08:53:45;102039.41;;;3.94;100.00
44988;BME280;35735;52.226;21.254;2023-02-14T08:58:52;102044.75;;;3.94;100.00
44988;BME280;35735;52.226;21.254;2023-02-14T09:03:53;102044.09;;;3.98;100.00
44988;BME280;35735;52.226;21.254;2023-02-14T09:08:53;102030.22;;;4.05;100.00
44988;BME280;35735;52.226;21.254;2023-02-14T09:13:54;102032.53;;;4.15;100.00
44988;BME280;35735;52.226;21.254;2023-02-14T09:18:54;102039.25;;;4.25;100.00
44988;BME280;35735;52.226;21.254;2023-02-14T09:23:55;102040.16;;;4.25;100.00
44988;BME280;35735;52.226;21.254;2023-02-14T09:28:56;102048.19;;;4.25;100.00
44988;BME280;35735;52.226;21.254;2023-02-14T09:33:56;102044.78;;;4.28;100.00
44988;BME280;35735;52.226;21.254;2023-02-14T09:38:57;102049.59;;;4.35;100.00
44988;BME280;35735;52.226;21.254;2023-02-14T09:49:33;102050.28;;;4.49;100.00
44988;BME280;35735;52.226;21.254;2023-02-14T09:54:36;102056.78;;;4.54;100.00
44988;BME280;35735;52.226;21.254;2023-02-14T10:05:44;102047.06;;;4.74;100.00
44988;BME280;35735;52.226;21.254;2023-02-14T10:11:05;102052.00;;;4.83;100.00
44988;BME280;35735;52.226;21.254;2023-02-14T10:16:17;102046.31;;;4.95;100.00
44988;BME280;35735;52.226;21.254;2023-02-14T10:21:24;102042.78;;;4.96;100.00
44988;BME280;35735;52.226;21.254;2023-02-14T10:26:36;102035.47;;;4.92;100.00
44988;BME280;35735;52.226;21.254;2023-02-14T10:31:45;102043.87;;;4.99;100.00
44988;BME280;35735;52.226;21.254;2023-02-14T10:52:51;102050.75;;;4.94;100.00
44988;BME280;35735;52.226;21.254;2023-02-14T10:58:05;102044.41;;;4.92;100.00
44988;BME280;35735;52.226;21.254;2023-02-14T11:03:11;102057.50;;;4.86;100.00
44988;BME280;35735;52.226;21.254;2023-02-14T11:08:23;102047.06;;;4.92;100.00
44988;BME280;35735;52.226;21.254;2023-02-14T11:13:32;102044.63;;;4.97;100.00
44988;BME280;35735;52.226;21.254;2023-02-14T11:18:38;102047.53;;;5.01;100.00
44988;BME280;35735;52.226;21.254;2023-02-14T11:23:45;102057.47;;;5.04;100.00
44988;BME280;35735;52.226;21.254;2023-02-14T11:28:53;102052.50;;;5.12;100.00
44988;BME280;35735;52.226;21.254;2023-02-14T11:33:57;102045.03;;;5.24;100.00
44988;BME280;35735;52.226;21.254;2023-02-14T11:39:31;102046.06;;;5.26;100.00
44988;BME280;35735;52.226;21.254;2023-02-14T11:44:33;102028.97;;;5.24;100.00
44988;BME280;35735;52.226;21.254;2023-02-14T11:49:34;102029.13;;;5.27;100.00
44988;BME280;35735;52.226;21.254;2023-02-14T11:54:38;102021.25;;;5.30;100.00
44988;BME280;35735;52.226;21.254;2023-02-14T11:59:42;102018.88;;;5.36;100.00
44988;BME280;35735;52.226;21.254;2023-02-14T12:04:46;102016.44;;;5.43;100.00
44988;BME280;35735;52.226;21.254;2023-02-14T12:10:25;102008.47;;;5.44;100.00
44988;BME280;35735;52.226;21.254;2023-02-14T12:20:52;102006.25;;;5.53;100.00
44988;BME280;35735;52.226;21.254;2023-02-14T12:26:11;102003.72;;;5.56;100.00
44988;BME280;35735;52.226;21.254;2023-02-14T12:31:17;102000.38;;;5.62;100.00
44988;BME280;35735;52.226;21.254;2023-02-14T12:53:36;101992.19;;;5.59;100.00
44988;BME280;35735;52.226;21.254;2023-02-14T13:09:57;101982.53;;;5.82;100.00
44988;BME280;35735;52.226;21.254;2023-02-14T13:20:41;101990.28;;;5.76;100.00
44988;BME280;35735;52.226;21.254;2023-02-14T13:25:57;101992.28;;;5.61;100.00
44988;BME280;35735;52.226;21.254;2023-02-14T13:31:01;101992.28;;;5.61;100.00
44988;BME280;35735;52.226;21.254;2023-02-14T13:36:05;101994.88;;;5.59;100.00
44988;BME280;35735;52.226;21.254;2023-02-14T13:41:08;101998.28;;;5.55;100.00
44988;BME280;35735;52.226;21.254;2023-02-14T13:46:09;102000.09;;;5.56;100.00
44988;BME280;35735;52.226;21.254;2023-02-14T13:51:10;101995.47;;;5.52;100.00
44988;BME280;35735;52.226;21.254;2023-02-14T14:12:03;101996.97;;;5.66;100.00
44988;BME280;35735;52.226;21.254;2023-02-14T14:17:19;101991.50;;;5.63;100.00
44988;BME280;35735;52.226;21.254;2023-02-14T14:22:20;101981.56;;;5.61;100.00
44988;BME280;35735;52.226;21.254;2023-02-14T14:27:28;101983.72;;;5.69;100.00
44988;BME280;35735;52.226;21.254;2023-02-14T14:32:37;101991.06;;;5.73;100.00
44988;BME280;35735;52.226;21.254;2023-02-14T14:37:52;101993.75;;;5.73;100.00
44988;BME280;35735;52.226;21.254;2023-02-14T14:42:59;102000.22;;;5.79;100.00
44988;BME280;35735;52.226;21.254;2023-02-14T14:48:17;101999.44;;;5.81;100.00
44988;BME280;35735;52.226;21.254;2023-02-14T14:53:36;101999.50;;;5.83;100.00
44988;BME280;35735;52.226;21.254;2023-02-14T14:58:42;101996.00;;;5.84;100.00
44988;BME280;35735;52.226;21.254;2023-02-14T15:03:42;101999.50;;;5.83;100.00
44988;BME280;35735;52.226;21.254;2023-02-14T15:08:43;101996.81;;;5.83;100.00
44988;BME280;35735;52.226;21.254;2023-02-14T15:13:48;102000.75;;;5.91;100.00
44988;BME280;35735;52.226;21.254;2023-02-14T15:18:55;102005.59;;;5.98;100.00
44988;BME280;35735;52.226;21.254;2023-02-14T15:23:57;101997.59;;;6.00;100.00
44988;BME280;35735;52.226;21.254;2023-02-14T15:29:04;101999.59;;;6.04;100.00
44988;BME280;35735;52.226;21.254;2023-02-14T15:34:06;101996.69;;;5.99;100.00
44988;BME280;35735;52.226;21.254;2023-02-14T15:39:07;102003.81;;;5.99;100.00
44988;BME280;35735;52.226;21.254;2023-02-14T15:44:24;101998.41;;;5.97;100.00
44988;BME280;35735;52.226;21.254;2023-02-14T15:49:31;101996.69;;;5.99;100.00
44988;BME280;35735;52.226;21.254;2023-02-14T15:54:40;102007.75;;;6.07;100.00
44988;BME280;35735;52.226;21.254;2023-02-14T15:59:42;102009.56;;;6.08;100.00
44988;BME280;35735;52.226;21.254;2023-02-14T16:04:43;102011.34;;;6.07;100.00
44988;BME280;35735;52.226;21.254;2023-02-14T16:09:44;102009.41;;;6.03;100.00
44988;BME280;35735;52.226;21.254;2023-02-14T16:14:44;102016.56;;;6.04;100.00
44988;BME280;35735;52.226;21.254;2023-02-14T16:19:45;102025.47;;;6.03;100.00
44988;BME280;35735;52.226;21.254;2023-02-14T16:24:45;102030.56;;;5.97;100.00
44988;BME280;35735;52.226;21.254;2023-02-14T16:29:46;102034.69;;;5.90;100.00
44988;BME280;35735;52.226;21.254;2023-02-14T16:34:47;102037.81;;;5.80;100.00
44988;BME280;35735;52.226;21.254;2023-02-14T16:39:52;102034.78;;;5.72;100.00
44988;BME280;35735;52.226;21.254;2023-02-14T16:44:53;102039.22;;;5.72;100.00
44988;BME280;35735;52.226;21.254;2023-02-14T16:49:54;102046.75;;;5.61;100.00
44988;BME280;35735;52.226;21.254;2023-02-14T16:54:54;102050.09;;;5.55;100.00
44988;BME280;35735;52.226;21.254;2023-02-14T16:59:55;102042.94;;;5.56;100.00
44988;BME280;35735;52.226;21.254;2023-02-14T17:04:56;102048.31;;;5.56;100.00
44988;BME280;35735;52.226;21.254;2023-02-14T17:10:10;102047.25;;;5.52;100.00
44988;BME280;35735;52.226;21.254;2023-02-14T17:15:17;102052.25;;;5.64;100.00
44988;BME280;35735;52.226;21.254;2023-02-14T17:20:19;102058.13;;;5.55;100.00
44988;BME280;35735;52.226;21.254;2023-02-14T17:25:20;102069.19;;;5.44;100.00
44988;BME280;35735;52.226;21.254;2023-02-14T17:30:20;102079.00;;;5.25;100.00
44988;BME280;35735;52.226;21.254;2023-02-14T17:35:21;102079.50;;;5.16;100.00
44988;BME280;35735;52.226;21.254;2023-02-14T17:40:22;102075.69;;;5.11;100.00
44988;BME280;35735;52.226;21.254;2023-02-14T17:45:22;102079.75;;;5.03;100.00
44988;BME280;35735;52.226;21.254;2023-02-14T17:50:23;102075.06;;;4.99;100.00
44988;BME280;35735;52.226;21.254;2023-02-14T17:55:23;102071.88;;;4.88;100.00
44988;BME280;35735;52.226;21.254;2023-02-14T18:00:24;102081.81;;;4.73;100.00
44988;BME280;35735;52.226;21.254;2023-02-14T18:05:24;102077.75;;;4.63;100.00
44988;BME280;35735;52.226;21.254;2023-02-14T18:10:25;102073.00;;;4.57;100.00
44988;BME280;35735;52.226;21.254;2023-02-14T18:15:26;102074.22;;;4.46;100.00
44988;BME280;35735;52.226;21.254;2023-02-14T18:20:26;102070.37;;;4.41;100.00
44988;BME280;35735;52.226;21.254;2023-02-14T18:25:27;102066.47;;;4.34;100.00
44988;BME280;35735;52.226;21.254;2023-02-14T18:30:27;102066.91;;;4.25;100.00
44988;BME280;35735;52.226;21.254;2023-02-14T18:35:28;102060.31;;;4.19;100.00
44988;BME280;35735;52.226;21.254;2023-02-14T18:40:28;102067.78;;;4.08;100.00
44988;BME280;35735;52.226;21.254;2023-02-14T18:45:29;102066.56;;;4.01;100.00
44988;BME280;35735;52.226;21.254;2023-02-14T18:50:31;102066.03;;;3.92;100.00
44988;BME280;35735;52.226;21.254;2023-02-14T18:55:32;102072.06;;;3.88;100.00
44988;BME280;35735;52.226;21.254;2023-02-14T19:00:33;102076.25;;;3.83;100.00
44988;BME280;35735;52.226;21.254;2023-02-14T19:05:36;102066.12;;;3.77;100.00
44988;BME280;35735;52.226;21.254;2023-02-14T19:10:37;102067.22;;;3.81;100.00
44988;BME280;35735;52.226;21.254;2023-02-14T19:15:37;102065.56;;;3.83;100.00
44988;BME280;35735;52.226;21.254;2023-02-14T19:20:38;102061.88;;;3.81;100.00
44988;BME280;35735;52.226;21.254;2023-02-14T19:25:38;102061.75;;;3.78;100.00
44988;BME280;35735;52.226;21.254;2023-02-14T19:30:39;102069.50;;;3.73;100.00
44988;BME280;35735;52.226;21.254;2023-02-14T19:35:39;102067.66;;;3.72;100.00
44988;BME280;35735;52.226;21.254;2023-02-14T19:40:43;102080.91;;;3.70;100.00
44988;BME280;35735;52.226;21.254;2023-02-14T19:45:43;102078.31;;;3.72;100.00
44988;BME280;35735;52.226;21.254;2023-02-14T19:50:44;102080.75;;;3.67;100.00
44988;BME280;35735;52.226;21.254;2023-02-14T19:55:44;102086.34;;;3.56;100.00
44988;BME280;35735;52.226;21.254;2023-02-14T20:00:52;102083.56;;;3.54;100.00
44988;BME280;35735;52.226;21.254;2023-02-14T20:05:56;102084.84;;;3.61;100.00
44988;BME280;35735;52.226;21.254;2023-02-14T20:10:56;102085.34;;;3.53;100.00
44988;BME280;35735;52.226;21.254;2023-02-14T20:15:57;102083.56;;;3.54;100.00
44988;BME280;35735;52.226;21.254;2023-02-14T20:20:57;102093.34;;;3.53;100.00
44988;BME280;35735;52.226;21.254;2023-02-14T20:25:58;102094.44;;;3.57;100.00
44988;BME280;35735;52.226;21.254;2023-02-14T20:30:58;102089.09;;;3.57;100.00
44988;BME280;35735;52.226;21.254;2023-02-14T20:36:00;102085.41;;;3.55;100.00
44988;BME280;35735;52.226;21.254;2023-02-14T20:41:05;102087.84;;;3.50;100.00
44988;BME280;35735;52.226;21.254;2023-02-14T20:46:06;102096.53;;;3.46;100.00
44988;BME280;35735;52.226;21.254;2023-02-14T20:51:12;102095.34;;;3.41;100.00
44988;BME280;35735;52.226;21.254;2023-02-14T20:56:14;102093.09;;;3.32;100.00
44988;BME280;35735;52.226;21.254;2023-02-14T21:01:20;102082.97;;;3.27;100.00
44988;BME280;35735;52.226;21.254;2023-02-14T21:06:25;102090.38;;;3.16;100.00
44988;BME280;35735;52.226;21.254;2023-02-14T21:11:27;102088.03;;;3.06;100.00
44988;BME280;35735;52.226;21.254;2023-02-14T21:16:28;102090.28;;;2.83;100.00
44988;BME280;35735;52.226;21.254;2023-02-14T21:21:31;102096.00;;;2.74;100.00
44988;BME280;35735;52.226;21.254;2023-02-14T21:26:33;102100.06;;;2.68;100.00
44988;BME280;35735;52.226;21.254;2023-02-14T21:31:34;102097.09;;;2.63;100.00
44988;BME280;35735;52.226;21.254;2023-02-14T21:36:35;102099.69;;;2.62;100.00
44988;BME280;35735;52.226;21.254;2023-02-14T21:41:36;102102.06;;;2.57;100.00
44988;BME280;35735;52.226;21.254;2023-02-14T21:46:37;102103.63;;;2.38;100.00
44988;BME280;35735;52.226;21.254;2023-02-14T21:51:38;102098.97;;;2.34;100.00
44988;BME280;35735;52.226;21.254;2023-02-14T21:56:39;102101.25;;;2.43;100.00
44988;BME280;35735;52.226;21.254;2023-02-14T22:01:41;102094.53;;;2.50;100.00
44988;BME280;35735;52.226;21.254;2023-02-14T22:06:41;102096.28;;;2.64;100.00
44988;BME280;35735;52.226;21.254;2023-02-14T22:11:42;102097.81;;;2.75;100.00
44988;BME280;35735;52.226;21.254;2023-02-14T22:16:42;102093.22;;;2.88;100.00
44988;BME280;35735;52.226;21.254;2023-02-14T22:21:43;102090.25;;;2.98;100.00
44988;BME280;35735;52.226;21.254;2023-02-14T22:26:44;102092.69;;;3.10;100.00
44988;BME280;35735;52.226;21.254;2023-02-14T22:31:45;102093.97;;;3.17;100.00
44988;BME280;35735;52.226;21.254;2023-02-14T22:36:45;102087.50;;;3.28;100.00
44988;BME280;35735;52.226;21.254;2023-02-14T22:41:46;102089.00;;;3.39;100.00
44988;BME280;35735;52.226;21.254;2023-02-14T22:46:46;102085.84;;;3.46;100.00
44988;BME280;35735;52.226;21.254;2023-02-14T22:51:47;102093.34;;;3.53;100.00
44988;BME280;35735;52.226;21.254;2023-02-14T22:56:49;102091.66;;;3.56;100.00
44988;BME280;35735;52.226;21.254;2023-02-14T23:01:51;102095.38;;;3.58;100.00
44988;BME280;35735;52.226;21.254;2023-02-14T23:06:52;102095.84;;;3.67;100.00
44988;BME280;35735;52.226;21.254;2023-02-14T23:11:53;102085.59;;;3.75;100.00
44988;BME280;35735;52.226;21.254;2023-02-14T23:16:53;102080.34;;;3.76;100.00
44988;BME280;35735;52.226;21.254;2023-02-14T23:21:54;102077.69;;;3.76;100.00
44988;BME280;35735;52.226;21.254;2023-02-14T23:26:55;102082.34;;;3.80;100.00
44988;BME280;35735;52.226;21.254;2023-02-14T23:31:55;102076.47;;;3.87;100.00
44988;BME280;35735;52.226;21.254;2023-02-14T23:36:56;102071.13;;;3.87;100.00
44988;BME280;35735;52.226;21.254;2023-02-14T23:41:57;102079.31;;;3.90;100.00
44988;BME280;35735;52.226;21.254;2023-02-14T23:47:00;102075.81;;;3.92;100.00
44988;BME280;35735;52.226;21.254;2023-02-14T23:52:04;102075.13;;;3.96;100.00
44988;BME280;35735;52.226;21.254;2023-02-14T23:57:07;102074.47;;;4.00;100.00
